Terminal Aerodrome Forecast
Issued by NWS

Home | Current Version | Previous Version | Text Only | Print | Product List | Glossary On
Versions: 1 2 3 4 5 6 7 8 9 10 11 12 13
000
FTUS43 KEAX 141100
TAFMKC
TAF
KMKC 141120Z 1412/1512 34016G26KT P6SM OVC017
      TEMPO 1412/1415 2SM -SNRA BR OVC013
     FM141500 34020G29KT P6SM VCSH BKN015
     FM141800 35016G25KT P6SM BKN035
     FM150000 36008KT P6SM SCT050=

USA.gov is the U.S. government's official web portal to all federal, state and local government web resources and services.